Time;durP1;ratioP1;P1;durP2;ratioP2;P2;SDS_P1;SDS_P2;PMS_P1;PMS_P2;Temp;Humidity;BMP_temperature;BMP_pressure;BME280_temperature;BME280_humidity;BME280_pressure;Samples;Min_cycle;Max_cycle;Signal;HPM_P1;HPM_P2
2023/12/05 00:00:27;;;;;;;43.30;24.42;;;;;;;;;;2082571;28;20036;-75
2023/12/05 00:01:48;;;;;;;65.43;32.28;;;;;;;;;;2071892;28;20092;-75
2023/12/05 00:03:09;;;;;;;47.75;25.80;;;;;;;;;;2077547;28;20100;-76
2023/12/05 00:04:31;;;;;;;54.38;26.42;;;;;;;;;;2084962;28;20029;-76
2023/12/05 00:05:52;;;;;;;61.63;30.75;;;;;;;;;;2082375;28;20437;-73
2023/12/05 00:07:12;;;;;;;52.63;27.90;;;;;;;;;;2077628;28;20076;-73
2023/12/05 00:08:33;;;;;;;52.38;27.77;;;;;;;;;;2084116;28;20033;-76
2023/12/05 00:09:54;;;;;;;40.17;23.40;;;;;;;;;;2084283;28;20439;-75
2023/12/05 00:11:15;;;;;;;48.75;26.25;;;;;;;;;;2083119;28;20040;-75
2023/12/05 00:12:36;;;;;;;61.10;29.33;;;;;;;;;;2076323;28;20117;-76
2023/12/05 00:13:57;;;;;;;50.97;24.52;;;;;;;;;;2081675;28;20037;-72
2023/12/05 00:15:18;;;;;;;51.72;27.65;;;;;;;;;;2073830;28;20041;-76
2023/12/05 00:16:39;;;;;;;46.35;25.27;;;;;;;;;;2081660;28;20091;-76
2023/12/05 00:18:00;;;;;;;70.20;31.48;;;;;;;;;;2078169;28;20041;-75
2023/12/05 00:19:20;;;;;;;57.42;28.15;;;;;;;;;;2082316;28;20578;-75
2023/12/05 00:20:41;;;;;;;54.30;27.83;;;;;;;;;;2086757;28;20025;-75
2023/12/05 00:22:02;;;;;;;52.13;25.38;;;;;;;;;;2078700;28;20037;-74
2023/12/05 00:23:23;;;;;;;59.97;30.48;;;;;;;;;;2071747;28;20057;-73
2023/12/05 00:24:44;;;;;;;47.58;26.13;;;;;;;;;;2075102;28;20045;-73
2023/12/05 00:26:05;;;;;;;56.95;28.42;;;;;;;;;;2071111;28;20033;-74
2023/12/05 00:27:26;;;;;;;53.60;27.10;;;;;;;;;;2082277;28;20031;-74
2023/12/05 00:28:47;;;;;;;52.25;27.65;;;;;;;;;;2079288;28;20034;-73
2023/12/05 00:30:08;;;;;;;65.97;31.52;;;;;;;;;;2080646;28;20484;-75
2023/12/05 00:31:29;;;;;;;63.97;29.55;;;;;;;;;;2084752;28;20055;-73
2023/12/05 00:32:50;;;;;;;50.67;24.83;;;;;;;;;;2087515;28;20503;-73
2023/12/05 00:34:11;;;;;;;59.38;28.77;;;;;;;;;;2084437;28;20040;-73
2023/12/05 00:35:32;;;;;;;55.05;26.45;;;;;;;;;;2084178;28;20037;-73
2023/12/05 00:36:53;;;;;;;79.15;35.25;;;;;;;;;;2077368;28;20456;-73
2023/12/05 00:38:14;;;;;;;65.63;29.02;;;;;;;;;;2084138;28;20036;-74
2023/12/05 00:39:35;;;;;;;75.80;35.55;;;;;;;;;;2084050;28;20059;-74
2023/12/05 00:40:59;;;;;;;60.63;29.48;;;;;;;;;;2081052;28;20032;-73
2023/12/05 00:42:20;;;;;;;75.53;33.17;;;;;;;;;;2085647;28;20400;-73
2023/12/05 00:43:41;;;;;;;60.25;28.65;;;;;;;;;;2076126;28;20038;-73
2023/12/05 00:45:02;;;;;;;69.88;30.52;;;;;;;;;;2078879;28;20038;-73
2023/12/05 00:46:23;;;;;;;64.47;28.90;;;;;;;;;;2083018;28;20056;-73
2023/12/05 00:47:44;;;;;;;61.63;31.20;;;;;;;;;;2087499;28;20438;-74
2023/12/05 00:49:05;;;;;;;57.40;27.42;;;;;;;;;;2083951;28;20029;-74
2023/12/05 00:50:26;;;;;;;69.93;31.75;;;;;;;;;;2076761;28;20029;-73
2023/12/05 00:51:46;;;;;;;63.75;27.88;;;;;;;;;;2074090;28;20547;-73
2023/12/05 00:53:07;;;;;;;59.08;28.20;;;;;;;;;;2080643;28;20098;-74
2023/12/05 00:54:28;;;;;;;75.70;31.63;;;;;;;;;;2075128;28;20045;-73
2023/12/05 00:55:49;;;;;;;72.20;32.08;;;;;;;;;;2081687;28;20045;-73
2023/12/05 00:57:11;;;;;;;58.92;28.38;;;;;;;;;;2083807;28;20028;-73
2023/12/05 00:58:32;;;;;;;55.23;26.13;;;;;;;;;;2083917;28;20112;-74
2023/12/05 00:59:52;;;;;;;67.13;29.17;;;;;;;;;;2085959;28;20435;-73
2023/12/05 01:01:13;;;;;;;56.92;28.58;;;;;;;;;;2088629;28;20033;-73
2023/12/05 01:02:34;;;;;;;57.75;26.35;;;;;;;;;;2088458;28;20532;-72
2023/12/05 01:03:56;;;;;;;56.00;25.65;;;;;;;;;;2087525;28;20048;-74
2023/12/05 01:05:17;;;;;;;60.80;28.73;;;;;;;;;;2086648;28;20036;-73
2023/12/05 01:06:38;;;;;;;51.83;26.42;;;;;;;;;;2081158;28;20021;-74
2023/12/05 01:07:59;;;;;;;76.30;33.20;;;;;;;;;;2077267;28;20468;-74
2023/12/05 01:09:20;;;;;;;78.40;34.22;;;;;;;;;;2085456;28;20029;-74
2023/12/05 01:10:41;;;;;;;56.13;27.08;;;;;;;;;;2078878;28;20026;-74
2023/12/05 01:12:02;;;;;;;64.22;28.50;;;;;;;;;;2080217;28;20029;-73
2023/12/05 01:13:24;;;;;;;70.15;30.00;;;;;;;;;;2086707;28;20411;-73
2023/12/05 01:14:45;;;;;;;57.75;27.00;;;;;;;;;;2087081;28;20416;-73
2023/12/05 01:16:06;;;;;;;73.05;31.52;;;;;;;;;;2088070;28;20029;-73
2023/12/05 01:17:27;;;;;;;62.67;27.80;;;;;;;;;;2078404;28;20030;-74
2023/12/05 01:18:48;;;;;;;69.35;30.75;;;;;;;;;;2079255;28;20022;-74
2023/12/05 01:20:11;;;;;;;58.03;27.08;;;;;;;;;;2095875;28;20508;-73
2023/12/05 01:21:32;;;;;;;71.75;30.70;;;;;;;;;;2079245;28;20021;-74
2023/12/05 01:22:53;;;;;;;61.50;30.02;;;;;;;;;;2076600;28;20037;-73
2023/12/05 01:24:14;;;;;;;74.97;31.85;;;;;;;;;;2088089;28;20029;-73
2023/12/05 01:25:35;;;;;;;58.50;28.15;;;;;;;;;;2078189;28;20042;-74
2023/12/05 01:26:56;;;;;;;64.15;28.85;;;;;;;;;;2078021;28;20575;-74
2023/12/05 01:28:17;;;;;;;71.35;29.63;;;;;;;;;;2079990;28;20091;-73
2023/12/05 01:29:38;;;;;;;57.70;28.08;;;;;;;;;;2080293;28;20029;-74
2023/12/05 01:30:59;;;;;;;54.05;27.15;;;;;;;;;;2087031;28;20036;-74
2023/12/05 01:32:19;;;;;;;59.63;27.70;;;;;;;;;;2085365;28;20091;-73
2023/12/05 01:33:40;;;;;;;64.40;29.77;;;;;;;;;;2083930;28;20400;-74
2023/12/05 01:35:01;;;;;;;62.72;28.80;;;;;;;;;;2082840;28;20044;-73
2023/12/05 01:36:22;;;;;;;73.25;31.88;;;;;;;;;;2084497;28;20025;-74
2023/12/05 01:37:43;;;;;;;60.10;28.15;;;;;;;;;;2085219;28;20051;-75
2023/12/05 01:39:04;;;;;;;60.47;28.33;;;;;;;;;;2083391;28;20068;-74
2023/12/05 01:40:25;;;;;;;57.90;29.50;;;;;;;;;;2087500;28;20025;-74
2023/12/05 01:41:46;;;;;;;56.47;27.65;;;;;;;;;;2075164;28;20033;-75
2023/12/05 01:43:07;;;;;;;58.03;27.77;;;;;;;;;;2084207;28;20103;-74
2023/12/05 01:44:28;;;;;;;56.83;26.88;;;;;;;;;;2075345;28;20060;-75
2023/12/05 01:45:49;;;;;;;52.75;26.38;;;;;;;;;;2082207;28;20366;-74
2023/12/05 01:47:10;;;;;;;64.18;28.58;;;;;;;;;;2077972;28;20076;-74
2023/12/05 01:48:32;;;;;;;57.70;27.33;;;;;;;;;;2078091;28;20029;-75
2023/12/05 01:49:53;;;;;;;61.83;30.33;;;;;;;;;;2084362;28;20103;-74
2023/12/05 01:51:15;;;;;;;59.25;28.42;;;;;;;;;;2076768;28;20030;-75
2023/12/05 01:52:38;;;;;;;57.08;25.90;;;;;;;;;;2083194;28;20029;-75
2023/12/05 01:53:59;;;;;;;69.60;29.25;;;;;;;;;;2083577;28;20357;-75
2023/12/05 01:55:21;;;;;;;73.10;31.10;;;;;;;;;;2074539;28;20107;-75
2023/12/05 01:56:42;;;;;;;;;;;;;;;;;;2081534;28;20033;-74
2023/12/05 01:58:04;;;;;;;61.03;28.13;;;;;;;;;;2088016;28;19909;-75
2023/12/05 01:59:25;;;;;;;57.30;26.80;;;;;;;;;;2075001;28;20178;-75
2023/12/05 02:00:46;;;;;;;59.90;28.48;;;;;;;;;;2081518;28;20083;-75
2023/12/05 02:02:07;;;;;;;85.45;34.78;;;;;;;;;;2079212;28;20468;-76
2023/12/05 02:03:28;;;;;;;71.63;30.45;;;;;;;;;;2086063;28;20037;-73
2023/12/05 02:04:49;;;;;;;60.80;29.08;;;;;;;;;;2074531;28;20025;-74
2023/12/05 02:06:10;;;;;;;84.75;34.10;;;;;;;;;;2084304;28;20040;-74
2023/12/05 02:07:31;;;;;;;62.47;27.35;;;;;;;;;;2086957;28;20026;-74
2023/12/05 02:08:53;;;;;;;78.20;34.25;;;;;;;;;;2081032;28;20038;-74
2023/12/05 02:10:13;;;;;;;68.43;30.85;;;;;;;;;;2079887;28;20030;-76
2023/12/05 02:11:35;;;;;;;58.22;27.35;;;;;;;;;;2079393;28;20033;-75
2023/12/05 02:12:57;;;;;;;51.42;26.17;;;;;;;;;;2072645;28;20077;-75
2023/12/05 02:14:19;;;;;;;63.40;29.55;;;;;;;;;;2086370;28;20025;-75
2023/12/05 02:15:40;;;;;;;74.60;31.80;;;;;;;;;;2087214;28;20165;-75
2023/12/05 02:17:04;;;;;;;60.28;26.85;;;;;;;;;;2087293;28;20029;-74
2023/12/05 02:18:29;;;;;;;61.97;27.58;;;;;;;;;;2080663;28;20419;-75
2023/12/05 02:19:50;;;;;;;71.10;29.85;;;;;;;;;;2080006;28;20053;-75
2023/12/05 02:21:13;;;;;;;66.28;29.58;;;;;;;;;;2087189;28;20028;-75
2023/12/05 02:23:00;;;;;;;55.45;27.25;;;;;;;;;;2092024;28;20510;-74
2023/12/05 02:24:36;;;;;;;70.47;29.88;;;;;;;;;;2092039;28;20090;-75
2023/12/05 02:25:57;;;;;;;57.80;28.17;;;;;;;;;;2088546;28;20049;-75
2023/12/05 02:27:31;;;;;;;54.38;27.13;;;;;;;;;;2079807;28;20087;-75
2023/12/05 02:28:52;;;;;;;55.45;25.35;;;;;;;;;;2080133;28;20026;-75
2023/12/05 02:30:15;;;;;;;57.78;27.60;;;;;;;;;;2080925;28;20030;-75
2023/12/05 02:31:36;;;;;;;51.15;26.45;;;;;;;;;;2076045;28;20453;-75
2023/12/05 02:32:57;;;;;;;61.83;27.95;;;;;;;;;;2082714;28;20067;-75
2023/12/05 02:34:18;;;;;;;51.85;26.13;;;;;;;;;;2087016;28;20029;-75
2023/12/05 02:35:39;;;;;;;81.45;33.80;;;;;;;;;;2073927;28;20034;-75
2023/12/05 02:37:07;;;;;;;63.65;29.65;;;;;;;;;;2085997;28;20099;-75
2023/12/05 02:39:01;;;;;;;67.18;29.65;;;;;;;;;;2088549;28;20025;-75
2023/12/05 02:40:21;;;;;;;;;;;;;;;;;;2052869;28;20043;-75
2023/12/05 02:41:45;;;;;;;55.25;27.17;;;;;;;;;;2084768;28;19920;-74
2023/12/05 02:43:10;;;;;;;50.38;25.98;;;;;;;;;;2078953;28;20029;-75
2023/12/05 02:44:36;;;;;;;61.42;27.00;;;;;;;;;;2079775;28;20030;-74
2023/12/05 02:45:58;;;;;;;57.28;27.40;;;;;;;;;;2085768;28;20102;-75
2023/12/05 02:47:20;;;;;;;56.30;29.45;;;;;;;;;;2078858;28;20037;-75
2023/12/05 02:48:42;;;;;;;66.82;30.02;;;;;;;;;;2076769;28;20029;-74
2023/12/05 02:50:03;;;;;;;57.13;28.27;;;;;;;;;;2075412;28;20087;-73
2023/12/05 02:51:24;;;;;;;60.07;26.10;;;;;;;;;;2082587;28;20449;-73
2023/12/05 02:52:46;;;;;;;60.05;26.38;;;;;;;;;;2088621;28;20434;-74
2023/12/05 02:54:06;;;;;;;77.22;31.75;;;;;;;;;;2079255;28;20033;-74
2023/12/05 02:55:27;;;;;;;67.55;29.42;;;;;;;;;;2083994;28;20041;-74
2023/12/05 02:56:48;;;;;;;64.82;28.17;;;;;;;;;;2084739;28;20021;-73
2023/12/05 02:58:09;;;;;;;52.30;25.48;;;;;;;;;;2087222;28;20041;-74
2023/12/05 02:59:30;;;;;;;52.30;26.77;;;;;;;;;;2081421;28;20095;-74
2023/12/05 03:00:51;;;;;;;62.88;28.83;;;;;;;;;;2085123;28;20029;-74
2023/12/05 03:02:12;;;;;;;55.38;26.73;;;;;;;;;;2080986;28;20461;-74
2023/12/05 03:03:33;;;;;;;62.25;27.40;;;;;;;;;;2083723;28;20037;-74
2023/12/05 03:04:54;;;;;;;55.40;26.73;;;;;;;;;;2076045;28;20026;-74
2023/12/05 03:06:15;;;;;;;58.35;27.42;;;;;;;;;;2070798;28;20531;-74
2023/12/05 03:07:36;;;;;;;57.15;26.67;;;;;;;;;;2083239;28;20044;-74
2023/12/05 03:09:01;;;;;;;68.32;29.10;;;;;;;;;;2077904;28;20474;-74
2023/12/05 03:10:22;;;;;;;67.82;29.10;;;;;;;;;;2076021;28;20044;-74
2023/12/05 03:11:43;;;;;;;60.22;28.17;;;;;;;;;;2084716;28;20029;-74
2023/12/05 03:13:03;;;;;;;53.55;26.00;;;;;;;;;;2078525;28;20056;-74
2023/12/05 03:14:25;;;;;;;67.03;30.13;;;;;;;;;;2083152;28;20029;-74
2023/12/05 03:15:46;;;;;;;57.58;28.35;;;;;;;;;;2084520;28;20025;-74
2023/12/05 03:17:07;;;;;;;64.97;29.30;;;;;;;;;;2087366;28;20029;-74
2023/12/05 03:18:28;;;;;;;64.68;28.38;;;;;;;;;;2086376;28;20033;-74
2023/12/05 03:19:49;;;;;;;63.13;28.13;;;;;;;;;;2086903;28;20037;-74
2023/12/05 03:21:14;;;;;;;65.88;29.48;;;;;;;;;;2077579;28;20030;-74
2023/12/05 03:22:35;;;;;;;60.50;27.42;;;;;;;;;;2084995;28;20558;-73
2023/12/05 03:23:56;;;;;;;54.25;27.17;;;;;;;;;;2077606;28;20497;-73
2023/12/05 03:25:17;;;;;;;57.95;28.08;;;;;;;;;;2082028;28;20036;-74
2023/12/05 03:26:38;;;;;;;64.95;27.95;;;;;;;;;;2085599;28;20033;-74
2023/12/05 03:27:59;;;;;;;61.63;27.52;;;;;;;;;;2078838;28;20374;-75
2023/12/05 03:29:19;;;;;;;58.17;27.92;;;;;;;;;;2085068;28;20033;-75
2023/12/05 03:30:40;;;;;;;63.10;28.98;;;;;;;;;;2076145;28;20037;-75
2023/12/05 03:32:01;;;;;;;58.58;28.15;;;;;;;;;;2075421;28;20037;-74
2023/12/05 03:33:22;;;;;;;57.38;27.83;;;;;;;;;;2082229;28;20026;-75
2023/12/05 03:34:46;;;;;;;56.45;27.30;;;;;;;;;;2087408;28;20108;-74
2023/12/05 03:36:07;;;;;;;61.08;27.92;;;;;;;;;;2079618;28;20493;-75
2023/12/05 03:37:28;;;;;;;67.18;28.73;;;;;;;;;;2082572;28;20028;-76
2023/12/05 03:38:49;;;;;;;68.38;30.35;;;;;;;;;;2076326;28;20034;-75
2023/12/05 03:40:10;;;;;;;57.63;28.17;;;;;;;;;;2076620;28;20378;-75
2023/12/05 03:41:31;;;;;;;60.30;28.02;;;;;;;;;;2084160;28;20029;-75
2023/12/05 03:42:52;;;;;;;55.67;28.27;;;;;;;;;;2076090;28;20033;-74
2023/12/05 03:44:13;;;;;;;56.80;27.33;;;;;;;;;;2076551;28;20029;-75
2023/12/05 03:45:34;;;;;;;55.60;25.30;;;;;;;;;;2085133;28;20037;-74
2023/12/05 03:46:54;;;;;;;60.42;26.83;;;;;;;;;;2079702;28;20033;-74
2023/12/05 03:48:16;;;;;;;57.50;26.85;;;;;;;;;;2085471;28;20028;-75
2023/12/05 03:49:37;;;;;;;55.05;27.45;;;;;;;;;;2079668;28;20508;-75
2023/12/05 03:50:58;;;;;;;57.53;26.95;;;;;;;;;;2087399;28;20403;-75
2023/12/05 03:52:18;;;;;;;50.72;25.17;;;;;;;;;;2081182;28;20087;-74
2023/12/05 03:53:39;;;;;;;58.55;27.20;;;;;;;;;;2076621;28;20021;-76
2023/12/05 03:55:00;;;;;;;55.67;25.63;;;;;;;;;;2078124;28;20111;-74
2023/12/05 03:56:21;;;;;;;52.85;24.75;;;;;;;;;;2071346;28;20096;-75
2023/12/05 03:57:42;;;;;;;54.88;27.20;;;;;;;;;;2074427;28;20084;-75
2023/12/05 03:59:03;;;;;;;53.95;25.58;;;;;;;;;;2083443;28;20403;-74
2023/12/05 04:00:24;;;;;;;53.95;27.60;;;;;;;;;;2078629;28;20029;-74
2023/12/05 04:01:45;;;;;;;54.97;26.20;;;;;;;;;;2084552;28;20029;-74
2023/12/05 04:03:06;;;;;;;53.65;26.63;;;;;;;;;;2086935;28;20440;-75
2023/12/05 04:04:26;;;;;;;51.70;25.70;;;;;;;;;;2086736;28;20086;-75
2023/12/05 04:05:47;;;;;;;55.58;24.75;;;;;;;;;;2085581;28;20041;-75
2023/12/05 04:07:08;;;;;;;53.38;24.80;;;;;;;;;;2080300;28;20071;-75
2023/12/05 04:08:29;;;;;;;60.00;27.30;;;;;;;;;;2085027;28;20437;-75
2023/12/05 04:09:50;;;;;;;66.93;28.50;;;;;;;;;;2077819;28;20045;-75
2023/12/05 04:11:11;;;;;;;47.33;23.90;;;;;;;;;;2076658;28;20034;-76
2023/12/05 04:12:32;;;;;;;51.58;26.92;;;;;;;;;;2075209;28;20088;-76
2023/12/05 04:13:53;;;;;;;49.67;25.40;;;;;;;;;;2083230;28;20037;-75
2023/12/05 04:15:14;;;;;;;56.15;26.75;;;;;;;;;;2087093;28;20399;-75
2023/12/05 04:16:35;;;;;;;61.17;27.15;;;;;;;;;;2076335;28;20477;-75
2023/12/05 04:17:56;;;;;;;64.93;27.80;;;;;;;;;;2081821;28;20045;-75
2023/12/05 04:19:17;;;;;;;59.58;29.08;;;;;;;;;;2087980;28;20048;-76
2023/12/05 04:20:38;;;;;;;60.45;27.25;;;;;;;;;;2083385;28;20041;-75
2023/12/05 04:21:58;;;;;;;60.22;27.52;;;;;;;;;;2079542;28;20119;-74
2023/12/05 04:23:19;;;;;;;56.75;26.15;;;;;;;;;;2084985;28;20052;-75
2023/12/05 04:24:40;;;;;;;55.35;26.65;;;;;;;;;;2078346;28;20029;-76
2023/12/05 04:26:01;;;;;;;54.85;26.55;;;;;;;;;;2074534;28;20164;-75
2023/12/05 04:27:22;;;;;;;66.57;28.50;;;;;;;;;;2083332;28;20503;-75
2023/12/05 04:28:43;;;;;;;58.40;27.30;;;;;;;;;;2078846;28;20038;-75
2023/12/05 04:30:05;;;;;;;49.63;24.38;;;;;;;;;;2077731;28;20034;-76
2023/12/05 04:31:26;;;;;;;63.00;27.48;;;;;;;;;;2077099;28;20127;-75
2023/12/05 04:32:47;;;;;;;60.42;25.25;;;;;;;;;;2084980;28;20094;-76
2023/12/05 04:34:08;;;;;;;61.17;27.05;;;;;;;;;;2084916;28;20111;-76
2023/12/05 04:35:29;;;;;;;54.40;25.60;;;;;;;;;;2075023;28;20079;-76
2023/12/05 04:36:50;;;;;;;63.40;27.15;;;;;;;;;;2074787;28;20619;-75
2023/12/05 04:38:11;;;;;;;51.40;26.48;;;;;;;;;;2075274;28;20059;-76
2023/12/05 04:39:32;;;;;;;53.97;24.80;;;;;;;;;;2083225;28;20037;-75
2023/12/05 04:40:53;;;;;;;60.42;25.75;;;;;;;;;;2085020;28;20107;-75
2023/12/05 04:42:14;;;;;;;55.22;26.45;;;;;;;;;;2083719;28;20087;-76
2023/12/05 04:43:36;;;;;;;52.20;25.48;;;;;;;;;;2081184;28;20030;-76
2023/12/05 04:44:57;;;;;;;54.17;26.50;;;;;;;;;;2076996;28;20021;-76
2023/12/05 04:46:18;;;;;;;50.13;24.35;;;;;;;;;;2081239;28;20037;-76
2023/12/05 04:47:39;;;;;;;64.38;27.88;;;;;;;;;;2085409;28;20116;-76
2023/12/05 04:49:00;;;;;;;51.63;26.50;;;;;;;;;;2078591;28;20238;-75
2023/12/05 04:50:21;;;;;;;55.92;26.75;;;;;;;;;;2077111;28;20041;-74
2023/12/05 04:51:42;;;;;;;53.08;26.55;;;;;;;;;;2082721;28;20075;-75
2023/12/05 04:53:03;;;;;;;57.03;28.00;;;;;;;;;;2076863;28;20110;-74
2023/12/05 04:54:24;;;;;;;70.75;29.60;;;;;;;;;;2084001;28;20045;-74
2023/12/05 04:55:45;;;;;;;57.15;25.67;;;;;;;;;;2072808;28;20084;-75
2023/12/05 04:57:06;;;;;;;57.47;25.98;;;;;;;;;;2081960;28;20324;-75
2023/12/05 04:58:28;;;;;;;55.05;26.90;;;;;;;;;;2083005;28;20032;-75
2023/12/05 04:59:49;;;;;;;54.65;26.08;;;;;;;;;;2076128;28;20425;-75
2023/12/05 05:01:10;;;;;;;53.05;26.48;;;;;;;;;;2075576;28;20037;-75
2023/12/05 05:02:31;;;;;;;61.72;28.40;;;;;;;;;;2084962;28;20400;-75
2023/12/05 05:03:52;;;;;;;60.67;28.17;;;;;;;;;;2076402;28;20038;-75
2023/12/05 05:05:13;;;;;;;55.17;24.27;;;;;;;;;;2078360;28;20029;-76
2023/12/05 05:06:34;;;;;;;58.88;27.48;;;;;;;;;;2077872;28;20042;-75
2023/12/05 05:07:55;;;;;;;49.72;24.38;;;;;;;;;;2084317;28;20547;-75
2023/12/05 05:09:16;;;;;;;48.88;25.52;;;;;;;;;;2083230;28;20120;-75
2023/12/05 05:10:37;;;;;;;64.68;27.88;;;;;;;;;;2076435;28;20129;-75
2023/12/05 05:11:58;;;;;;;53.72;27.08;;;;;;;;;;2081634;28;20493;-75
2023/12/05 05:13:19;;;;;;;60.63;26.80;;;;;;;;;;2086306;28;20037;-75
2023/12/05 05:14:40;;;;;;;55.25;25.35;;;;;;;;;;2083622;28;20386;-75
2023/12/05 05:16:01;;;;;;;52.47;25.38;;;;;;;;;;2085426;28;20052;-75
2023/12/05 05:17:22;;;;;;;59.03;26.65;;;;;;;;;;2086939;28;20391;-75
2023/12/05 05:18:43;;;;;;;60.80;27.35;;;;;;;;;;2084549;28;20040;-75
2023/12/05 05:20:04;;;;;;;59.28;26.60;;;;;;;;;;2082839;28;20390;-75
2023/12/05 05:21:26;;;;;;;54.72;25.52;;;;;;;;;;2078136;28;20068;-75
2023/12/05 05:22:47;;;;;;;53.40;25.27;;;;;;;;;;2074216;28;20038;-75
2023/12/05 05:24:08;;;;;;;51.65;25.38;;;;;;;;;;2080371;28;20034;-76
2023/12/05 05:25:30;;;;;;;56.15;25.17;;;;;;;;;;2077247;28;20033;-75
2023/12/05 05:26:51;;;;;;;54.38;26.17;;;;;;;;;;2070828;28;21266;-75
2023/12/05 05:28:12;;;;;;;49.80;25.50;;;;;;;;;;2084641;28;20091;-75
2023/12/05 05:29:33;;;;;;;52.15;23.30;;;;;;;;;;2086686;28;20029;-75
2023/12/05 05:30:54;;;;;;;54.40;25.42;;;;;;;;;;2078379;28;20183;-75
2023/12/05 05:32:15;;;;;;;52.30;25.13;;;;;;;;;;2073756;28;20037;-75
2023/12/05 05:33:36;;;;;;;50.67;24.02;;;;;;;;;;2077424;28;20517;-75
2023/12/05 05:34:57;;;;;;;59.20;25.73;;;;;;;;;;2071034;28;20093;-75
2023/12/05 05:36:18;;;;;;;50.03;24.70;;;;;;;;;;2079825;28;20037;-75
2023/12/05 05:37:39;;;;;;;46.17;24.73;;;;;;;;;;2078643;28;20037;-76
2023/12/05 05:39:00;;;;;;;49.15;23.20;;;;;;;;;;2084229;28;20033;-75
2023/12/05 05:40:21;;;;;;;47.00;24.48;;;;;;;;;;2078010;28;20104;-75
2023/12/05 05:41:42;;;;;;;50.65;23.67;;;;;;;;;;2083866;28;20021;-76
2023/12/05 05:43:03;;;;;;;52.42;25.05;;;;;;;;;;2084644;28;20025;-76
2023/12/05 05:44:24;;;;;;;51.78;24.15;;;;;;;;;;2075887;28;20022;-75
2023/12/05 05:45:45;;;;;;;51.25;24.65;;;;;;;;;;2084005;28;20029;-76
2023/12/05 05:47:06;;;;;;;45.55;22.48;;;;;;;;;;2085737;28;20037;-75
2023/12/05 05:48:27;;;;;;;51.92;25.20;;;;;;;;;;2083871;28;20033;-75
2023/12/05 05:49:48;;;;;;;45.22;23.85;;;;;;;;;;2086323;28;20025;-74
2023/12/05 05:51:09;;;;;;;44.35;23.80;;;;;;;;;;2095522;28;20029;-76
2023/12/05 05:52:29;;;;;;;46.72;23.20;;;;;;;;;;2082986;28;20127;-75
2023/12/05 05:53:50;;;;;;;43.78;22.45;;;;;;;;;;2081391;28;20477;-75
2023/12/05 05:55:11;;;;;;;41.55;22.88;;;;;;;;;;2085664;28;20026;-76
2023/12/05 05:56:39;;;;;;;47.00;23.67;;;;;;;;;;2077819;28;20041;-76
2023/12/05 05:58:00;;;;;;;51.50;23.02;;;;;;;;;;2088424;28;20037;-75
2023/12/05 05:59:21;;;;;;;52.70;24.05;;;;;;;;;;2080973;28;20134;-76
2023/12/05 06:00:41;;;;;;;41.67;21.98;;;;;;;;;;2076068;28;20501;-76
2023/12/05 06:02:03;;;;;;;45.65;23.42;;;;;;;;;;2083610;28;20041;-75
2023/12/05 06:03:27;;;;;;;50.50;23.88;;;;;;;;;;2087848;28;20087;-76
2023/12/05 06:04:48;;;;;;;44.63;21.88;;;;;;;;;;2078103;28;20026;-75
2023/12/05 06:06:09;;;;;;;47.03;23.95;;;;;;;;;;2073988;28;20303;-76
2023/12/05 06:07:31;;;;;;;47.70;24.20;;;;;;;;;;2084551;28;20025;-75
2023/12/05 06:08:52;;;;;;;46.70;22.73;;;;;;;;;;2086615;28;20404;-76
2023/12/05 06:10:13;;;;;;;45.42;23.77;;;;;;;;;;2086295;28;20024;-75
2023/12/05 06:11:34;;;;;;;45.50;23.08;;;;;;;;;;2089111;28;20447;-75
2023/12/05 06:12:55;;;;;;;44.78;24.10;;;;;;;;;;2078615;28;20079;-75
2023/12/05 06:14:16;;;;;;;51.63;24.77;;;;;;;;;;2083774;28;20055;-75
2023/12/05 06:15:37;;;;;;;47.97;24.13;;;;;;;;;;2087215;28;20029;-75
2023/12/05 06:16:58;;;;;;;50.53;24.15;;;;;;;;;;2080367;28;20338;-76
2023/12/05 06:18:19;;;;;;;47.33;22.55;;;;;;;;;;2083554;28;20037;-75
2023/12/05 06:19:39;;;;;;;46.03;22.77;;;;;;;;;;2073460;28;20060;-76
2023/12/05 06:21:00;;;;;;;44.40;22.70;;;;;;;;;;2072096;28;20108;-75
2023/12/05 06:22:21;;;;;;;43.20;22.10;;;;;;;;;;2072632;28;20545;-75
2023/12/05 06:23:42;;;;;;;45.55;23.10;;;;;;;;;;2071884;28;20399;-76
2023/12/05 06:25:03;;;;;;;43.65;22.58;;;;;;;;;;2072843;28;20030;-75
2023/12/05 06:26:24;;;;;;;47.53;23.67;;;;;;;;;;2072355;28;20081;-76
2023/12/05 06:27:46;;;;;;;55.03;24.95;;;;;;;;;;2070746;28;20163;-75
2023/12/05 06:29:07;;;;;;;46.00;23.33;;;;;;;;;;2071805;28;20034;-75
2023/12/05 06:30:28;;;;;;;45.90;23.45;;;;;;;;;;2071344;28;20053;-76
2023/12/05 06:31:48;;;;;;;46.80;23.17;;;;;;;;;;2072388;28;20042;-76
2023/12/05 06:33:09;;;;;;;48.50;23.17;;;;;;;;;;2074210;28;20026;-76
2023/12/05 06:34:30;;;;;;;41.63;21.98;;;;;;;;;;2071906;28;20171;-77
2023/12/05 06:35:51;;;;;;;42.03;21.35;;;;;;;;;;2072795;28;20073;-76
2023/12/05 06:37:12;;;;;;;45.47;21.77;;;;;;;;;;2078014;28;20041;-75
2023/12/05 06:38:33;;;;;;;47.30;23.08;;;;;;;;;;2073192;28;20049;-75
2023/12/05 06:39:54;;;;;;;44.95;23.05;;;;;;;;;;2069313;28;20393;-77
2023/12/05 06:41:15;;;;;;;47.78;22.45;;;;;;;;;;2070982;28;20390;-76
2023/12/05 06:42:37;;;;;;;42.67;22.42;;;;;;;;;;2072383;28;20038;-76
2023/12/05 06:43:58;;;;;;;52.17;24.08;;;;;;;;;;2072259;28;20464;-77
2023/12/05 06:45:19;;;;;;;53.38;24.60;;;;;;;;;;2075782;28;20038;-77
2023/12/05 06:46:40;;;;;;;45.28;22.67;;;;;;;;;;2073338;28;20042;-76
2023/12/05 06:48:01;;;;;;;42.78;22.48;;;;;;;;;;2068624;28;20088;-77
2023/12/05 06:49:22;;;;;;;50.28;23.63;;;;;;;;;;2069173;28;20089;-76
2023/12/05 06:50:46;;;;;;;50.55;24.85;;;;;;;;;;2067141;28;20030;-76
2023/12/05 06:52:08;;;;;;;48.22;23.17;;;;;;;;;;2073337;28;20034;-76
2023/12/05 06:53:29;;;;;;;43.03;23.10;;;;;;;;;;2067715;28;20497;-76
2023/12/05 06:54:51;;;;;;;52.25;25.00;;;;;;;;;;2068982;28;20476;-77
2023/12/05 06:56:12;;;;;;;54.20;24.52;;;;;;;;;;2065993;28;21539;-76
2023/12/05 06:57:33;;;;;;;46.40;24.35;;;;;;;;;;2072800;28;20034;-77
2023/12/05 06:58:54;;;;;;;43.30;24.02;;;;;;;;;;2072324;28;20037;-76
2023/12/05 07:00:16;;;;;;;41.95;22.70;;;;;;;;;;2074733;28;20087;-76
2023/12/05 07:01:36;;;;;;;49.40;24.88;;;;;;;;;;2079945;28;20025;-76
2023/12/05 07:02:57;;;;;;;47.15;23.38;;;;;;;;;;2070182;28;20049;-77
2023/12/05 07:04:18;;;;;;;52.08;23.73;;;;;;;;;;2072870;28;20034;-76
2023/12/05 07:05:39;;;;;;;50.88;24.48;;;;;;;;;;2072878;28;20041;-78
2023/12/05 07:07:00;;;;;;;51.15;25.15;;;;;;;;;;2075116;28;20038;-76
2023/12/05 07:08:21;;;;;;;50.85;23.65;;;;;;;;;;2072551;28;20034;-77
2023/12/05 07:09:42;;;;;;;51.92;24.90;;;;;;;;;;2075279;28;20022;-77
2023/12/05 07:11:03;;;;;;;62.70;26.95;;;;;;;;;;2079223;28;20037;-76
2023/12/05 07:12:24;;;;;;;49.58;24.70;;;;;;;;;;2080941;28;20032;-77
2023/12/05 07:13:45;;;;;;;50.40;24.35;;;;;;;;;;2072144;28;20033;-77
2023/12/05 07:15:08;;;;;;;52.47;24.15;;;;;;;;;;2072340;28;20034;-77
2023/12/05 07:16:29;;;;;;;56.03;25.98;;;;;;;;;;2056511;28;20046;-77
2023/12/05 07:17:50;;;;;;;50.75;24.88;;;;;;;;;;2068921;28;20030;-77
2023/12/05 07:19:11;;;;;;;52.20;25.05;;;;;;;;;;2081391;28;20026;-77
2023/12/05 07:20:31;;;;;;;53.15;26.58;;;;;;;;;;2082292;28;20493;-77
2023/12/05 07:21:52;;;;;;;62.15;28.30;;;;;;;;;;2069954;28;20026;-77
2023/12/05 07:23:13;;;;;;;57.60;27.00;;;;;;;;;;2074731;28;20029;-77
2023/12/05 07:24:35;;;;;;;49.42;24.30;;;;;;;;;;2075518;28;20049;-78
2023/12/05 07:25:56;;;;;;;52.72;25.90;;;;;;;;;;2080000;28;20104;-78
2023/12/05 07:27:17;;;;;;;46.83;22.88;;;;;;;;;;2077766;28;20191;-76
2023/12/05 07:28:38;;;;;;;53.13;26.15;;;;;;;;;;2078548;28;20025;-77
2023/12/05 07:29:59;;;;;;;47.83;25.42;;;;;;;;;;2080652;28;20477;-77
2023/12/05 07:31:20;;;;;;;45.72;23.83;;;;;;;;;;2069090;28;20030;-77
2023/12/05 07:32:41;;;;;;;48.63;24.58;;;;;;;;;;2073754;28;20033;-77
2023/12/05 07:34:02;;;;;;;49.13;22.98;;;;;;;;;;2078201;28;20030;-77
2023/12/05 07:35:23;;;;;;;56.45;26.70;;;;;;;;;;2081085;28;20488;-77
2023/12/05 07:36:44;;;;;;;53.30;25.33;;;;;;;;;;2072260;28;20045;-77
2023/12/05 07:38:06;;;;;;;71.00;28.38;;;;;;;;;;2078548;28;20033;-78
2023/12/05 07:39:27;;;;;;;52.22;25.20;;;;;;;;;;2077376;28;20027;-78
2023/12/05 07:40:47;;;;;;;55.08;24.27;;;;;;;;;;2080026;28;20041;-78
2023/12/05 07:42:08;;;;;;;48.10;24.33;;;;;;;;;;2077628;28;20030;-79
2023/12/05 07:43:29;;;;;;;53.60;24.08;;;;;;;;;;2070133;28;20085;-78
2023/12/05 07:44:51;;;;;;;48.65;24.48;;;;;;;;;;2070828;28;20504;-78
2023/12/05 07:46:12;;;;;;;50.15;25.25;;;;;;;;;;2071357;28;20030;-77
2023/12/05 07:47:33;;;;;;;52.05;25.48;;;;;;;;;;2071476;28;20034;-78
2023/12/05 07:48:54;;;;;;;50.83;24.60;;;;;;;;;;2070318;28;20047;-77
2023/12/05 07:50:15;;;;;;;54.20;24.75;;;;;;;;;;2068397;28;20489;-77
2023/12/05 07:51:36;;;;;;;51.83;24.20;;;;;;;;;;2071167;28;20034;-77
2023/12/05 07:52:57;;;;;;;49.38;24.75;;;;;;;;;;2077771;28;20060;-77
2023/12/05 07:54:18;;;;;;;52.00;23.85;;;;;;;;;;2080584;28;20033;-78